Time;durP1;ratioP1;P1;durP2;ratioP2;P2;SDS_P1;SDS_P2;PMS_P1;PMS_P2;Temp;Humidity;BMP_temperature;BMP_pressure;BME280_temperature;BME280_humidity;BME280_pressure;Samples;Min_cycle;Max_cycle;Signal;HPM_P1;HPM_P2
2023/10/06 00:02:26;;;;;;;6.30;0.80;;;27.70;40.90;;;;;;5067211;28;20031;-69
2023/10/06 00:04:54;;;;;;;1.10;0.40;;;27.80;40.20;;;;;;5057650;28;20059;-66
2023/10/06 00:07:24;;;;;;;2.28;0.30;;;28.00;40.20;;;;;;5065231;28;20095;-69
2023/10/06 00:09:53;;;;;;;2.97;0.30;;;28.20;40.50;;;;;;5069077;28;20031;-69
2023/10/06 00:12:21;;;;;;;1.70;0.35;;;27.80;40.90;;;;;;5071407;28;20054;-68
2023/10/06 00:14:48;;;;;;;2.92;0.40;;;27.90;40.50;;;;;;5072761;28;20712;-68
2023/10/06 00:17:17;;;;;;;1.67;0.47;;;28.10;40.70;;;;;;5073550;28;20147;-69
2023/10/06 00:19:46;;;;;;;1.67;0.30;;;28.50;40.00;;;;;;5064232;28;20066;-68
2023/10/06 00:24:47;;;;;;;1.85;0.40;;;28.70;39.30;;;;;;5064824;28;20115;-69
2023/10/06 00:27:18;;;;;;;3.45;0.40;;;28.50;40.00;;;;;;5067650;28;20039;-68
2023/10/06 00:30:11;;;;;;;1.10;0.22;;;28.50;39.50;;;;;;5062026;28;20021;-67
2023/10/06 00:32:36;;;;;;;1.85;0.30;;;28.40;39.80;;;;;;5066527;28;20070;-70
2023/10/06 00:35:15;;;;;;;1.23;0.30;;;28.30;40.40;;;;;;5069151;28;20032;-69
2023/10/06 00:37:43;;;;;;;0.75;0.30;;;28.20;41.10;;;;;;5062068;28;20071;-70
2023/10/06 00:40:19;;;;;;;1.83;0.30;;;28.20;41.30;;;;;;5045944;28;20036;-69
2023/10/06 00:42:59;;;;;;;2.63;0.22;;;28.30;40.20;;;;;;5049889;28;20086;-69
2023/10/06 00:45:26;;;;;;;1.83;0.40;;;28.40;39.60;;;;;;5061259;28;20028;-68
2023/10/06 00:47:54;;;;;;;2.75;0.35;;;28.10;38.90;;;;;;5066034;28;20116;-69
2023/10/06 00:50:23;;;;;;;1.35;0.30;;;27.60;39.40;;;;;;5071574;28;20131;-68
2023/10/06 00:52:52;;;;;;;0.52;0.10;;;27.50;39.70;;;;;;5063304;28;20424;-71
2023/10/06 00:55:26;;;;;;;0.90;0.40;;;27.30;40.90;;;;;;5059322;28;20036;-69
2023/10/06 00:57:53;;;;;;;4.03;0.45;;;27.40;39.20;;;;;;5047361;28;20044;-69
2023/10/06 01:00:22;;;;;;;2.90;0.40;;;27.70;40.80;;;;;;5058248;28;20021;-69
2023/10/06 01:02:52;;;;;;;1.20;0.45;;;27.70;40.40;;;;;;5065527;28;20048;-69
2023/10/06 01:05:20;;;;;;;2.28;0.25;;;28.20;41.40;;;;;;5068613;28;20086;-70
2023/10/06 01:07:49;;;;;;;2.47;0.30;;;28.60;39.40;;;;;;5068080;28;20051;-69
2023/10/06 01:10:27;;;;;;;0.82;0.17;;;28.70;40.30;;;;;;5070456;28;20427;-69
2023/10/06 01:12:56;;;;;;;0.40;0.10;;;28.90;40.40;;;;;;5058931;28;20473;-69
2023/10/06 01:15:29;;;;;;;2.85;0.20;;;29.20;39.20;;;;;;5046639;28;20158;-70
2023/10/06 01:17:58;;;;;;;1.23;0.13;;;29.00;39.00;;;;;;5064208;28;20040;-69
2023/10/06 01:20:41;;;;;;;0.80;0.30;;;28.80;39.10;;;;;;5062729;28;20028;-69
2023/10/06 01:23:19;;;;;;;0.40;0.20;;;28.60;38.70;;;;;;5046436;28;20024;-68
2023/10/06 01:25:47;;;;;;;0.52;0.17;;;28.60;39.30;;;;;;5064969;28;20476;-68
2023/10/06 01:28:14;;;;;;;1.73;0.20;;;28.70;39.20;;;;;;5063298;28;20071;-69
2023/10/06 01:30:42;;;;;;;2.08;0.20;;;29.00;39.10;;;;;;5069605;28;20035;-68
2023/10/06 01:33:10;;;;;;;0.20;0.00;;;29.10;39.20;;;;;;5073038;28;20107;-68
2023/10/06 01:35:42;;;;;;;0.88;0.10;;;29.00;38.20;;;;;;5069941;28;20473;-69
2023/10/06 01:38:22;;;;;;;0.43;0.10;;;28.50;38.20;;;;;;5069696;28;20040;-68
2023/10/06 01:40:53;;;;;;;0.70;0.25;;;28.00;38.70;;;;;;5053381;28;20041;-68
2023/10/06 01:43:25;;;;;;;1.55;0.20;;;27.90;38.90;;;;;;5076860;28;20031;-68
2023/10/06 01:45:52;;;;;;;0.75;0.10;;;28.10;38.40;;;;;;5068964;28;20032;-68
2023/10/06 01:50:48;;;;;;;0.63;0.10;;;28.10;39.60;;;;;;5063585;28;20031;-68
2023/10/06 01:53:20;;;;;;;0.65;0.10;;;28.40;38.10;;;;;;5065161;28;20143;-67
2023/10/06 01:55:52;;;;;;;4.03;0.47;;;28.20;39.30;;;;;;5062783;28;20066;-69
2023/10/06 01:58:19;;;;;;;1.75;0.30;;;27.80;39.30;;;;;;5062778;28;20049;-68
2023/10/06 02:00:50;;;;;;;0.85;0.22;;;27.40;39.00;;;;;;5065329;28;20036;-68
2023/10/06 02:03:17;;;;;;;0.38;0.20;;;26.90;39.60;;;;;;5062860;28;20020;-68
2023/10/06 02:05:45;;;;;;;0.10;0.00;;;26.60;40.40;;;;;;5063787;28;20031;-68
2023/10/06 02:08:22;;;;;;;1.20;0.20;;;26.60;40.20;;;;;;5070766;28;20100;-69
2023/10/06 02:10:50;;;;;;;1.35;0.10;;;26.70;40.90;;;;;;5067342;28;20052;-70
2023/10/06 02:13:21;;;;;;;1.10;0.30;;;26.50;40.40;;;;;;5058425;28;20043;-70
2023/10/06 02:15:59;;;;;;;1.10;0.20;;;26.50;40.40;;;;;;5062355;28;20078;-69
2023/10/06 02:18:37;;;;;;;1.52;0.30;;;26.50;41.10;;;;;;5059844;28;20044;-69
2023/10/06 02:21:14;;;;;;;0.40;0.10;;;26.40;41.30;;;;;;5078667;28;20020;-69
2023/10/06 02:23:42;;;;;;;1.77;0.30;;;26.10;41.70;;;;;;5081665;28;20048;-71
2023/10/06 02:26:12;;;;;;;0.32;0.10;;;25.70;42.00;;;;;;5079146;28;20035;-69
2023/10/06 02:28:48;;;;;;;1.65;0.30;;;25.10;43.20;;;;;;5074480;28;20087;-69
2023/10/06 02:31:21;;;;;;;1.17;0.20;;;25.00;42.50;;;;;;5069397;28;20031;-68
2023/10/06 02:33:51;;;;;;;1.52;0.38;;;24.80;43.60;;;;;;5069082;28;20020;-69
2023/10/06 02:36:22;;;;;;;2.28;0.45;;;24.60;43.70;;;;;;5074412;28;20086;-69
2023/10/06 02:38:51;;;;;;;1.10;0.40;;;24.40;43.70;;;;;;5075199;28;20047;-69
2023/10/06 02:41:28;;;;;;;1.55;0.35;;;24.10;44.30;;;;;;5054092;28;20027;-69
2023/10/06 02:44:05;;;;;;;0.85;0.22;;;24.00;44.70;;;;;;5068703;28;20023;-70
2023/10/06 02:46:34;;;;;;;2.38;0.63;;;23.60;44.10;;;;;;5048751;28;20021;-69
2023/10/06 02:49:06;;;;;;;3.72;0.40;;;23.40;44.60;;;;;;5071749;28;20424;-68
2023/10/06 02:51:40;;;;;;;3.22;0.30;;;23.20;45.80;;;;;;5074049;28;20016;-69
2023/10/06 02:56:46;;;;;;;2.17;0.38;;;23.10;45.50;;;;;;5071841;28;20131;-68
2023/10/06 02:59:25;;;;;;;1.50;0.60;;;23.20;46.40;;;;;;5077274;28;20036;-68
2023/10/06 03:02:00;;;;;;;2.20;0.25;;;23.00;48.00;;;;;;5068308;28;20012;-68
2023/10/06 03:04:28;;;;;;;1.02;0.43;;;22.70;47.80;;;;;;5045823;28;20024;-69
2023/10/06 03:06:57;;;;;;;2.10;0.50;;;22.60;48.20;;;;;;5072679;28;20027;-67
2023/10/06 03:09:38;;;;;;;1.83;0.30;;;22.80;50.00;;;;;;5069218;28;20024;-69
2023/10/06 03:14:54;;;;;;;9.20;0.70;;;23.10;49.00;;;;;;5071355;28;20028;-69
2023/10/06 03:17:22;;;;;;;1.98;0.57;;;22.90;50.10;;;;;;5076214;28;20047;-68
2023/10/06 03:22:38;;;;;;;3.92;0.80;;;22.30;51.50;;;;;;5069395;28;20371;-68
2023/10/06 03:25:16;;;;;;;3.40;0.60;;;22.50;51.80;;;;;;5075795;28;20032;-68
2023/10/06 03:27:54;;;;;;;6.03;0.50;;;22.70;51.10;;;;;;5083788;28;20070;-68
2023/10/06 03:30:28;;;;;;;2.67;0.65;;;23.50;50.40;;;;;;5079204;28;20040;-68
2023/10/06 03:32:57;;;;;;;6.55;2.25;;;24.10;50.00;;;;;;5079679;28;20013;-68
2023/10/06 03:35:35;;;;;;;5.95;1.92;;;24.70;50.60;;;;;;5077879;28;20024;-68
2023/10/06 03:38:36;;;;;;;4.10;1.27;;;25.40;49.90;;;;;;5077282;28;20028;-69
2023/10/06 03:46:14;;;;;;;1.00;0.50;;;23.30;51.60;;;;;;5075303;28;20140;-67
2023/10/06 03:48:41;;;;;;;4.30;0.90;;;23.00;52.80;;;;;;5076958;28;20029;-68
2023/10/06 03:51:09;;;;;;;1.33;0.45;;;22.50;53.20;;;;;;5075980;28;20099;-70
2023/10/06 03:53:36;;;;;;;2.95;0.50;;;22.20;55.00;;;;;;5077805;28;20363;-69
2023/10/06 03:56:06;;;;;;;5.38;0.90;;;22.10;55.40;;;;;;5080908;28;20025;-68
2023/10/06 03:58:33;;;;;;;4.85;1.05;;;22.50;55.80;;;;;;5082432;28;20028;-68
2023/10/06 04:01:11;;;;;;;4.18;0.60;;;22.90;53.70;;;;;;5076399;28;20035;-68
2023/10/06 04:03:39;;;;;;;3.97;0.50;;;23.00;54.20;;;;;;5078896;28;20052;-68
2023/10/06 04:06:15;;;;;;;0.68;0.22;;;23.00;53.80;;;;;;5056414;28;20024;-68
2023/10/06 04:08:46;;;;;;;1.30;0.40;;;23.00;53.40;;;;;;5076303;28;20053;-68
2023/10/06 04:11:14;;;;;;;2.58;0.88;;;23.20;54.80;;;;;;5073887;28;20465;-68
2023/10/06 04:13:45;;;;;;;5.10;0.95;;;23.20;54.50;;;;;;5073926;28;20103;-68
2023/10/06 04:16:14;;;;;;;3.83;0.98;;;22.80;54.70;;;;;;5076365;28;20021;-66
2023/10/06 04:18:47;;;;;;;6.93;1.20;;;22.20;57.60;;;;;;5072776;28;20461;-67
2023/10/06 04:21:14;;;;;;;6.15;1.02;;;21.90;61.40;;;;;;5074192;28;20017;-67
2023/10/06 04:23:42;;;;;;;7.30;1.42;;;21.50;63.90;;;;;;5079584;28;20021;-69
2023/10/06 04:26:14;;;;;;;7.85;1.30;;;21.60;64.20;;;;;;5072268;28;20039;-68
2023/10/06 04:28:42;;;;;;;7.75;1.40;;;21.50;65.10;;;;;;5065219;28;20025;-69
2023/10/06 04:31:11;;;;;;;8.05;1.83;;;21.70;64.20;;;;;;5066332;28;20039;-69
2023/10/06 04:33:40;;;;;;;9.10;1.50;;;21.90;63.70;;;;;;5061396;28;20029;-69
2023/10/06 04:36:08;;;;;;;8.88;1.52;;;22.30;64.50;;;;;;5063911;28;20495;-69
2023/10/06 04:38:40;;;;;;;10.13;1.40;;;22.90;61.70;;;;;;5065114;28;20107;-69
2023/10/06 04:41:08;;;;;;;7.35;1.10;;;22.80;62.20;;;;;;5077711;28;20043;-70
2023/10/06 04:43:37;;;;;;;7.43;1.50;;;22.50;63.20;;;;;;5065896;28;20032;-70
2023/10/06 04:46:05;;;;;;;9.27;1.60;;;22.00;64.30;;;;;;5066684;28;20025;-68
2023/10/06 04:48:36;;;;;;;5.82;1.38;;;21.60;65.50;;;;;;5069476;28;20081;-69
2023/10/06 04:51:05;;;;;;;6.68;1.70;;;21.20;65.90;;;;;;5083130;28;20028;-70
2023/10/06 04:53:36;;;;;;;6.72;1.30;;;20.60;68.00;;;;;;5076525;28;20060;-71
2023/10/06 04:56:08;;;;;;;9.57;1.65;;;20.50;73.40;;;;;;5054906;28;20769;-70
2023/10/06 04:58:42;;;;;;;11.23;1.58;;;20.30;69.30;;;;;;5071826;28;20495;-70
2023/10/06 05:01:11;;;;;;;6.85;1.38;;;20.30;69.70;;;;;;5069447;28;20402;-70
2023/10/06 05:03:50;;;;;;;6.15;1.33;;;20.40;69.40;;;;;;5074305;28;20036;-70
2023/10/06 05:06:21;;;;;;;4.85;0.93;;;20.20;69.40;;;;;;5071341;28;20029;-68
2023/10/06 05:08:49;;;;;;;9.20;1.48;;;20.10;69.30;;;;;;5063079;28;20104;-68
2023/10/06 05:11:23;;;;;;;5.40;0.98;;;20.00;69.40;;;;;;5064040;28;20031;-68
2023/10/06 05:13:53;;;;;;;7.47;1.58;;;19.90;69.90;;;;;;5060602;28;20054;-70
2023/10/06 05:16:22;;;;;;;7.93;1.60;;;19.90;70.50;;;;;;5070282;28;20792;-71
2023/10/06 05:18:50;;;;;;;9.90;1.63;;;19.90;70.30;;;;;;5068465;28;20388;-70
2023/10/06 05:21:18;;;;;;;9.57;1.90;;;19.70;70.40;;;;;;5068877;28;20043;-68
2023/10/06 05:23:46;;;;;;;7.38;1.40;;;19.60;71.60;;;;;;5075304;28;20035;-68
2023/10/06 05:26:15;;;;;;;6.20;1.48;;;19.70;71.10;;;;;;5067948;28;20051;-68
2023/10/06 05:28:43;;;;;;;13.20;1.63;;;19.40;71.80;;;;;;5072789;28;20103;-67
2023/10/06 05:31:10;;;;;;;11.00;2.17;;;19.30;72.50;;;;;;5074730;28;20039;-67
2023/10/06 05:33:38;;;;;;;9.75;2.22;;;19.40;72.70;;;;;;5073468;28;20099;-67
2023/10/06 05:36:12;;;;;;;13.32;2.03;;;19.20;73.30;;;;;;5072232;28;20032;-67
2023/10/06 05:38:41;;;;;;;11.23;1.95;;;19.20;73.20;;;;;;5074303;28;20047;-67
2023/10/06 05:41:11;;;;;;;9.77;2.05;;;19.20;75.70;;;;;;5073513;28;20052;-66
2023/10/06 05:43:40;;;;;;;13.52;2.47;;;19.20;76.90;;;;;;5068924;28;20021;-67
2023/10/06 05:46:09;;;;;;;7.95;1.83;;;19.10;78.70;;;;;;5065847;28;20051;-66
2023/10/06 05:48:36;;;;;;;6.72;2.15;;;19.00;78.40;;;;;;5074441;28;20635;-68
2023/10/06 05:51:09;;;;;;;9.15;2.58;;;18.80;79.20;;;;;;5071733;28;20032;-68
2023/10/06 05:53:40;;;;;;;7.22;1.88;;;18.60;80.30;;;;;;5070741;28;20036;-67
2023/10/06 05:56:07;;;;;;;10.23;2.30;;;18.50;80.90;;;;;;5065213;28;20032;-68
2023/10/06 05:58:37;;;;;;;8.43;2.63;;;18.40;81.30;;;;;;5072481;28;20036;-67
2023/10/06 06:01:10;;;;;;;7.20;2.53;;;18.30;82.10;;;;;;5076199;28;20058;-67
2023/10/06 06:03:57;;;;;;;8.07;2.25;;;18.40;81.00;;;;;;5071578;28;20027;-66
2023/10/06 06:06:26;;;;;;;12.23;4.30;;;18.50;80.20;;;;;;5068995;28;20020;-64
2023/10/06 06:08:55;;;;;;;13.82;4.32;;;18.50;80.30;;;;;;5047197;28;20392;-66
2023/10/06 06:11:23;;;;;;;17.13;7.90;;;18.50;79.70;;;;;;5059515;28;20098;-66
2023/10/06 06:13:51;;;;;;;10.27;3.30;;;18.40;81.20;;;;;;5064092;28;20380;-64
2023/10/06 06:16:18;;;;;;;8.95;2.47;;;18.30;82.40;;;;;;5071180;28;20016;-66
2023/10/06 06:18:46;;;;;;;9.05;2.22;;;18.10;84.40;;;;;;5066031;28;21090;-66
2023/10/06 06:21:16;;;;;;;10.80;2.55;;;18.00;84.40;;;;;;5063151;28;20028;-65
2023/10/06 06:23:46;;;;;;;10.73;2.67;;;18.10;84.80;;;;;;5063246;28;20273;-66
2023/10/06 06:26:16;;;;;;;10.45;2.47;;;18.00;84.20;;;;;;5074524;28;20036;-66
2023/10/06 06:28:45;;;;;;;12.77;2.25;;;18.00;84.10;;;;;;5066442;28;20020;-65
2023/10/06 06:31:18;;;;;;;7.07;1.77;;;18.00;83.30;;;;;;5071888;28;20037;-66
2023/10/06 06:33:53;;;;;;;9.27;2.45;;;17.90;82.30;;;;;;5064017;28;20086;-65
2023/10/06 06:36:22;;;;;;;;;;;17.80;83.80;;;;;;5069246;28;20140;-67
2023/10/06 06:38:51;;;;;;;10.85;2.38;;;17.80;85.10;;;;;;5071991;28;19919;-65
2023/10/06 06:41:19;;;;;;;10.00;1.90;;;17.80;82.00;;;;;;5065425;28;20027;-66
2023/10/06 06:43:46;;;;;;;9.70;1.80;;;17.80;82.90;;;;;;5079769;28;20020;-65
2023/10/06 06:46:16;;;;;;;9.48;2.05;;;17.60;81.70;;;;;;5069230;28;20035;-65
2023/10/06 06:48:44;;;;;;;12.38;2.25;;;17.60;80.30;;;;;;5069282;28;20055;-65
2023/10/06 06:51:12;;;;;;;10.13;2.70;;;17.60;80.70;;;;;;5072379;28;20062;-65
2023/10/06 06:53:42;;;;;;;10.13;1.73;;;17.50;79.70;;;;;;5074246;28;20083;-65
2023/10/06 06:56:10;;;;;;;14.23;2.00;;;17.50;79.50;;;;;;5076165;28;20020;-65
2023/10/06 06:58:38;;;;;;;7.40;1.88;;;17.50;78.90;;;;;;5059852;28;20047;-66
2023/10/06 07:01:07;;;;;;;9.63;2.03;;;17.60;78.60;;;;;;5081989;28;20469;-66
2023/10/06 07:03:34;;;;;;;11.63;1.85;;;17.50;79.30;;;;;;5076647;28;20380;-66
2023/10/06 07:06:02;;;;;;;9.52;1.80;;;17.60;78.00;;;;;;5078983;28;20074;-66
2023/10/06 07:08:29;;;;;;;10.18;2.00;;;17.60;77.20;;;;;;5072450;28;20032;-63
2023/10/06 07:10:57;;;;;;;8.52;2.10;;;17.60;77.40;;;;;;5078768;28;20036;-65
2023/10/06 07:13:25;;;;;;;11.85;2.20;;;17.50;78.10;;;;;;5077667;28;20024;-65
2023/10/06 07:15:53;;;;;;;7.25;1.52;;;17.60;77.30;;;;;;5078212;28;20032;-65
2023/10/06 07:18:22;;;;;;;8.77;1.85;;;17.60;76.70;;;;;;5074339;28;20469;-65
2023/10/06 07:20:49;;;;;;;13.32;2.20;;;17.50;75.90;;;;;;5077154;28;20115;-66
2023/10/06 07:23:17;;;;;;;12.25;2.47;;;17.60;75.50;;;;;;5067877;28;20048;-66
2023/10/06 07:25:45;;;;;;;11.35;2.55;;;17.50;75.80;;;;;;5071301;28;20645;-66
2023/10/06 07:28:12;;;;;;;12.18;2.15;;;17.50;76.30;;;;;;5076336;28;20028;-65
2023/10/06 07:30:40;;;;;;;9.93;2.30;;;17.40;76.00;;;;;;5074510;28;20031;-65
2023/10/06 07:33:07;;;;;;;11.10;2.33;;;17.40;76.50;;;;;;5071565;28;20111;-65
2023/10/06 07:35:41;;;;;;;7.00;2.22;;;17.40;77.10;;;;;;5074101;28;20028;-66
2023/10/06 07:38:10;;;;;;;10.93;2.58;;;17.50;76.40;;;;;;5054222;28;20044;-65
2023/10/06 07:40:38;;;;;;;11.45;2.10;;;17.50;76.30;;;;;;5078332;28;20044;-65
2023/10/06 07:43:09;;;;;;;12.20;1.60;;;17.60;76.70;;;;;;5070519;28;20486;-65
2023/10/06 07:45:37;;;;;;;9.73;2.08;;;17.40;77.40;;;;;;5079638;28;20419;-64
2023/10/06 07:48:09;;;;;;;18.70;3.10;;;17.50;77.40;;;;;;5071868;28;20028;-64
2023/10/06 07:50:37;;;;;;;13.75;3.10;;;17.50;77.60;;;;;;5057794;28;20052;-65
2023/10/06 07:53:06;;;;;;;13.38;3.53;;;17.50;77.40;;;;;;5069459;28;20025;-66
2023/10/06 07:55:33;;;;;;;14.27;2.85;;;17.40;77.90;;;;;;5078537;28;20579;-66
2023/10/06 07:58:03;;;;;;;18.83;2.67;;;17.50;78.00;;;;;;5052006;28;20404;-66
2023/10/06 08:00:32;;;;;;;12.60;2.00;;;17.30;77.90;;;;;;5070655;28;20032;-67
2023/10/06 08:03:03;;;;;;;15.68;2.63;;;17.30;78.30;;;;;;5075009;28;20029;-66
2023/10/06 08:05:31;;;;;;;14.13;2.40;;;17.40;77.80;;;;;;5070078;28;20813;-66
2023/10/06 08:07:59;;;;;;;11.52;2.30;;;17.40;78.50;;;;;;5073033;28;20329;-66
2023/10/06 08:10:30;;;;;;;10.57;2.20;;;17.30;78.40;;;;;;5070264;28;20118;-66
2023/10/06 08:13:00;;;;;;;18.45;2.58;;;17.40;78.00;;;;;;5072141;28;20033;-66
2023/10/06 08:15:28;;;;;;;20.40;2.78;;;17.40;78.00;;;;;;5060571;28;20106;-66
2023/10/06 08:17:56;;;;;;;15.10;2.38;;;17.60;77.20;;;;;;5080907;28;20043;-65
2023/10/06 08:20:25;;;;;;;12.98;2.30;;;17.60;77.40;;;;;;5072916;28;20399;-66
2023/10/06 08:22:56;;;;;;;10.55;2.40;;;17.50;77.40;;;;;;5078145;28;20036;-65
2023/10/06 08:25:24;;;;;;;24.52;2.95;;;17.40;78.00;;;;;;5077849;28;20463;-65
2023/10/06 08:27:54;;;;;;;14.43;2.90;;;17.40;78.20;;;;;;5083923;28;20047;-65
2023/10/06 08:30:26;;;;;;;16.83;2.92;;;17.40;78.70;;;;;;5067066;28;20428;-64
2023/10/06 08:32:54;;;;;;;16.55;2.58;;;17.30;79.00;;;;;;5056851;28;20090;-65
2023/10/06 08:35:23;;;;;;;14.60;3.08;;;17.30;78.80;;;;;;5080919;28;20112;-65
2023/10/06 08:37:52;;;;;;;15.18;2.67;;;17.20;79.20;;;;;;5080919;28;20068;-64
2023/10/06 08:40:22;;;;;;;17.20;2.78;;;17.30;79.60;;;;;;5077775;28;20392;-65
2023/10/06 08:42:56;;;;;;;13.88;2.97;;;17.30;80.10;;;;;;5069462;28;20027;-65
2023/10/06 08:45:29;;;;;;;10.82;2.25;;;17.20;81.80;;;;;;5076463;28;20026;-65
2023/10/06 08:47:59;;;;;;;16.55;2.78;;;17.10;84.80;;;;;;5077574;28;20375;-67
2023/10/06 08:50:32;;;;;;;17.20;2.75;;;17.10;85.40;;;;;;5077853;28;20077;-66
2023/10/06 08:53:10;;;;;;;14.27;2.80;;;16.80;87.00;;;;;;5068973;28;20035;-66
2023/10/06 08:55:39;;;;;;;16.65;2.50;;;16.60;89.70;;;;;;5069125;28;20020;-66
2023/10/06 08:58:07;;;;;;;16.33;3.17;;;16.50;90.60;;;;;;5079782;28;20112;-66
2023/10/06 09:00:37;;;;;;;17.63;2.83;;;16.50;90.80;;;;;;5067866;28;20021;-66
2023/10/06 09:03:14;;;;;;;14.85;3.03;;;16.40;90.50;;;;;;5070604;28;20158;-66
2023/10/06 09:05:45;;;;;;;15.00;2.25;;;16.50;90.30;;;;;;5072398;28;20028;-67
2023/10/06 09:08:17;;;;;;;20.75;2.92;;;16.50;90.40;;;;;;5079542;28;20040;-65
2023/10/06 09:10:55;;;;;;;18.48;2.40;;;16.50;90.60;;;;;;5069556;28;20116;-66
2023/10/06 09:13:41;;;;;;;12.00;2.78;;;16.40;90.60;;;;;;5062525;28;20074;-66
2023/10/06 09:16:11;;;;;;;18.85;2.80;;;16.50;90.40;;;;;;5069047;28;20028;-66
2023/10/06 09:18:41;;;;;;;14.40;3.10;;;16.40;90.50;;;;;;5074049;28;20330;-66
2023/10/06 09:21:19;;;;;;;11.80;2.92;;;16.40;90.80;;;;;;5072102;28;20023;-66
2023/10/06 09:23:49;;;;;;;16.38;2.97;;;16.40;89.10;;;;;;5073508;28;20033;-66
2023/10/06 09:26:29;;;;;;;19.70;3.40;;;16.30;89.90;;;;;;5073614;28;20048;-65
2023/10/06 09:29:02;;;;;;;16.45;3.90;;;16.30;89.10;;;;;;5068537;28;20036;-65
2023/10/06 09:31:51;;;;;;;14.82;3.60;;;16.30;88.80;;;;;;5072182;28;20028;-65
2023/10/06 09:34:26;;;;;;;12.60;3.70;;;16.40;88.90;;;;;;5064758;28;20370;-66
2023/10/06 09:36:54;;;;;;;15.18;3.85;;;16.30;87.90;;;;;;5070428;28;20415;-67
2023/10/06 09:39:32;;;;;;;14.85;3.33;;;16.30;88.60;;;;;;5067815;28;20048;-64
2023/10/06 09:42:05;;;;;;;16.00;3.22;;;16.30;88.20;;;;;;5072065;28;20070;-65
2023/10/06 09:44:36;;;;;;;10.77;2.47;;;16.30;86.60;;;;;;5066746;28;20392;-66
2023/10/06 09:47:08;;;;;;;13.10;2.80;;;16.40;87.30;;;;;;5063664;28;20098;-66
2023/10/06 09:49:37;;;;;;;18.58;2.88;;;16.40;86.70;;;;;;5063131;28;20048;-66
2023/10/06 09:52:05;;;;;;;12.75;1.95;;;16.40;85.60;;;;;;5067649;28;20032;-66
2023/10/06 09:54:34;;;;;;;14.57;2.55;;;16.40;85.90;;;;;;5068876;28;20111;-66
2023/10/06 09:57:05;;;;;;;13.43;2.55;;;16.60;84.30;;;;;;5062934;28;20029;-66
2023/10/06 09:59:34;;;;;;;6.60;2.00;;;16.50;84.10;;;;;;5046543;28;20036;-66
2023/10/06 10:02:03;;;;;;;12.60;2.50;;;16.40;84.10;;;;;;5059135;28;20034;-66
2023/10/06 10:04:32;;;;;;;15.90;2.22;;;16.50;84.70;;;;;;5065667;28;20033;-66
2023/10/06 10:07:02;;;;;;;17.20;2.83;;;16.40;84.10;;;;;;5065109;28;20037;-67
2023/10/06 10:09:31;;;;;;;11.38;2.25;;;16.30;84.20;;;;;;5066918;28;20025;-67
2023/10/06 10:12:04;;;;;;;15.02;2.97;;;16.40;83.50;;;;;;5071354;28;20054;-68
2023/10/06 10:14:49;;;;;;;11.90;2.63;;;16.30;83.50;;;;;;5067031;28;20039;-67
2023/10/06 10:17:36;;;;;;;16.17;2.70;;;16.30;83.90;;;;;;5067640;28;20522;-67
2023/10/06 10:20:09;;;;;;;20.20;2.80;;;16.40;83.30;;;;;;5056916;28;20038;-67
2023/10/06 10:22:36;;;;;;;9.85;2.10;;;16.30;84.10;;;;;;5068558;28;20028;-66
2023/10/06 10:25:05;;;;;;;12.88;2.58;;;16.40;84.10;;;;;;5074520;28;20028;-65
2023/10/06 10:27:37;;;;;;;15.13;3.42;;;16.30;84.60;;;;;;5075492;28;20081;-65
2023/10/06 10:30:15;;;;;;;15.45;2.42;;;16.40;84.70;;;;;;5071235;28;20024;-66
2023/10/06 10:32:53;;;;;;;15.38;2.25;;;16.30;84.90;;;;;;5072227;28;20038;-66
2023/10/06 10:35:23;;;;;;;10.15;2.42;;;16.30;85.00;;;;;;5073380;28;20028;-66
2023/10/06 10:37:55;;;;;;;16.17;2.40;;;16.30;85.00;;;;;;5072527;28;20052;-65
2023/10/06 10:40:31;;;;;;;13.00;2.90;;;16.30;84.80;;;;;;5072536;28;20016;-65
2023/10/06 10:43:06;;;;;;;12.90;2.80;;;16.30;85.10;;;;;;5080094;28;20037;-65
2023/10/06 10:45:43;;;;;;;11.18;2.35;;;16.20;85.30;;;;;;5082382;28;20033;-65
2023/10/06 10:48:15;;;;;;;15.52;2.92;;;16.20;86.80;;;;;;5080489;28;20388;-66
2023/10/06 10:51:07;;;;;;;16.95;3.13;;;16.10;88.30;;;;;;5079696;28;20365;-66
2023/10/06 10:53:46;;;;;;;20.85;3.45;;;16.20;88.10;;;;;;5079806;28;20032;-66
2023/10/06 10:56:34;;;;;;;13.13;2.78;;;16.00;90.00;;;;;;5079057;28;20028;-66
2023/10/06 10:59:02;;;;;;;;;;;15.80;90.50;;;;;;5070162;28;20078;-67
2023/10/06 11:01:43;;;;;;;16.40;2.92;;;15.70;91.20;;;;;;5070600;28;20015;-66
2023/10/06 11:04:18;;;;;;;11.10;2.63;;;15.70;91.80;;;;;;5080326;28;20823;-67
2023/10/06 11:06:50;;;;;;;18.65;3.30;;;15.70;91.90;;;;;;5074715;28;20143;-67
2023/10/06 11:09:29;;;;;;;22.48;3.85;;;15.60;92.10;;;;;;5073612;28;20528;-67
2023/10/06 11:12:25;;;;;;;19.70;3.03;;;15.50;92.30;;;;;;5073124;28;20036;-66
2023/10/06 11:14:56;;;;;;;19.38;2.67;;;15.40;92.80;;;;;;5066937;28;20032;-67
2023/10/06 11:17:29;;;;;;;17.13;2.88;;;15.40;93.30;;;;;;5064366;28;20111;-66
2023/10/06 11:20:21;;;;;;;22.15;3.42;;;15.30;93.90;;;;;;5074653;28;20443;-66
2023/10/06 11:23:03;;;;;;;12.10;2.97;;;15.20;93.80;;;;;;5066769;28;20409;-67
2023/10/06 11:25:38;;;;;;;17.90;2.92;;;15.10;93.80;;;;;;5072655;28;20036;-67
2023/10/06 11:28:12;;;;;;;21.13;3.00;;;15.20;93.80;;;;;;5069070;28;20021;-67
2023/10/06 11:30:43;;;;;;;18.15;3.45;;;15.20;94.00;;;;;;5070151;28;20504;-67
2023/10/06 11:33:13;;;;;;;17.88;3.10;;;15.10;93.90;;;;;;5071535;28;20032;-67
2023/10/06 11:35:41;;;;;;;18.38;2.58;;;15.10;94.30;;;;;;5070440;28;20041;-67
2023/10/06 11:38:15;;;;;;;17.38;3.13;;;15.10;94.40;;;;;;5059842;28;20062;-67
2023/10/06 11:40:44;;;;;;;15.45;3.17;;;15.10;94.70;;;;;;5075320;28;20036;-67
2023/10/06 11:43:13;;;;;;;24.30;4.03;;;15.00;94.70;;;;;;5074311;28;20037;-66
2023/10/06 11:45:43;;;;;;;15.65;3.28;;;15.00;95.00;;;;;;5058110;28;20055;-66
2023/10/06 11:48:33;;;;;;;17.48;2.88;;;14.90;95.20;;;;;;5071591;28;20385;-65
2023/10/06 11:51:12;;;;;;;19.77;3.50;;;15.00;95.70;;;;;;5073274;28;20082;-66
2023/10/06 11:53:40;;;;;;;20.67;3.42;;;14.90;95.50;;;;;;5071134;28;20029;-66
2023/10/06 11:56:10;;;;;;;17.20;3.00;;;14.90;95.60;;;;;;5076459;28;20103;-66
2023/10/06 11:58:40;;;;;;;17.48;3.38;;;14.90;96.00;;;;;;5076028;28;20101;-66
2023/10/06 12:01:35;;;;;;;24.60;3.30;;;14.90;96.40;;;;;;5073607;28;20034;-67
2023/10/06 12:04:08;;;;;;;16.63;2.45;;;15.00;96.20;;;;;;5070673;28;20033;-68
2023/10/06 12:06:39;;;;;;;13.82;2.88;;;14.90;96.10;;;;;;5074388;28;20107;-66
2023/10/06 12:09:13;;;;;;;15.02;2.65;;;14.90;95.70;;;;;;5076669;28;20033;-67
2023/10/06 12:11:40;;;;;;;19.00;2.63;;;14.80;96.10;;;;;;5076996;28;20032;-66
2023/10/06 12:14:10;;;;;;;18.20;2.75;;;14.80;96.20;;;;;;5082705;28;20024;-66
2023/10/06 12:16:37;;;;;;;15.68;2.83;;;14.70;96.30;;;;;;5078276;28;20066;-66
2023/10/06 12:19:06;;;;;;;18.05;3.20;;;14.70;96.30;;;;;;5082326;28;20438;-66
2023/10/06 12:21:35;;;;;;;15.65;2.55;;;14.80;96.30;;;;;;5078674;28;20103;-66
2023/10/06 12:24:04;;;;;;;16.17;3.38;;;14.70;96.30;;;;;;5078144;28;20036;-65
2023/10/06 12:26:32;;;;;;;19.85;3.50;;;14.60;96.40;;;;;;5077549;28;20050;-66
2023/10/06 12:28:59;;;;;;;14.13;3.08;;;14.60;96.70;;;;;;5079186;28;20028;-66
2023/10/06 12:31:26;;;;;;;16.45;1.90;;;14.50;96.70;;;;;;5059507;28;20541;-67
2023/10/06 12:33:55;;;;;;;18.63;3.75;;;14.50;96.80;;;;;;5074258;28;20074;-67
2023/10/06 12:36:23;;;;;;;17.88;2.53;;;14.60;96.80;;;;;;5079457;28;20095;-67
2023/10/06 12:38:52;;;;;;;13.35;2.38;;;14.60;96.60;;;;;;5078391;28;20040;-67
2023/10/06 12:41:20;;;;;;;16.27;2.40;;;14.60;96.40;;;;;;5081486;28;20035;-67
2023/10/06 12:43:50;;;;;;;14.57;2.10;;;14.70;96.50;;;;;;5076032;28;20024;-67
2023/10/06 12:46:18;;;;;;;18.70;3.38;;;14.60;96.10;;;;;;5081254;28;20036;-67
2023/10/06 12:48:47;;;;;;;17.17;1.92;;;14.50;95.90;;;;;;5082830;28;20051;-66
2023/10/06 12:51:14;;;;;;;12.85;2.67;;;14.70;95.30;;;;;;5072780;28;20035;-66
2023/10/06 12:53:42;;;;;;;18.20;2.30;;;14.70;95.40;;;;;;5052889;28;20031;-67
2023/10/06 12:56:13;;;;;;;10.88;1.83;;;14.50;95.30;;;;;;5069613;28;21431;-67
2023/10/06 12:58:40;;;;;;;16.17;3.20;;;14.50;95.20;;;;;;5074013;28;20036;-66
2023/10/06 13:01:08;;;;;;;23.02;2.88;;;14.60;94.90;;;;;;5070739;28;20518;-66
2023/10/06 13:03:35;;;;;;;15.40;2.67;;;14.70;94.80;;;;;;5077976;28;20020;-67
2023/10/06 13:06:03;;;;;;;14.48;2.70;;;14.60;94.60;;;;;;5069993;28;20417;-66
2023/10/06 13:08:30;;;;;;;13.63;2.28;;;14.60;95.10;;;;;;5067770;28;20017;-65
2023/10/06 13:10:58;;;;;;;14.20;2.20;;;14.60;95.40;;;;;;5070366;28;20024;-66
2023/10/06 13:13:25;;;;;;;11.65;2.78;;;14.60;95.60;;;;;;5070847;28;20036;-66
2023/10/06 13:15:52;;;;;;;15.40;2.60;;;14.60;95.80;;;;;;5072263;28;20544;-66
2023/10/06 13:18:22;;;;;;;13.25;2.88;;;14.60;96.30;;;;;;5080984;28;20080;-66
2023/10/06 13:20:49;;;;;;;14.23;2.78;;;14.60;96.80;;;;;;5070378;28;20032;-66
2023/10/06 13:23:16;;;;;;;11.60;2.15;;;14.60;96.80;;;;;;5072711;28;20040;-65